sensor_id;sensor_type;location;lat;lon;timestamp;temperature;humidity
50738;DHT22;36703;48.154;17.126;2023-08-21T00:03:22;30.90;46.30
50738;DHT22;36703;48.154;17.126;2023-08-21T00:07:23;30.90;46.50
50738;DHT22;36703;48.154;17.126;2023-08-21T00:11:25;30.90;46.60
50738;DHT22;36703;48.154;17.126;2023-08-21T00:15:26;30.90;46.70
50738;DHT22;36703;48.154;17.126;2023-08-21T00:19:28;30.90;46.70
50738;DHT22;36703;48.154;17.126;2023-08-21T00:23:30;30.80;46.60
50738;DHT22;36703;48.154;17.126;2023-08-21T00:27:32;30.90;46.70
50738;DHT22;36703;48.154;17.126;2023-08-21T00:31:33;30.80;46.50
50738;DHT22;36703;48.154;17.126;2023-08-21T00:35:35;30.80;46.60
50738;DHT22;36703;48.154;17.126;2023-08-21T00:39:37;30.80;46.70
50738;DHT22;36703;48.154;17.126;2023-08-21T00:43:38;30.70;46.70
50738;DHT22;36703;48.154;17.126;2023-08-21T00:47:40;30.60;46.80
50738;DHT22;36703;48.154;17.126;2023-08-21T00:51:44;30.60;46.90
50738;DHT22;36703;48.154;17.126;2023-08-21T00:55:46;30.50;47.10
50738;DHT22;36703;48.154;17.126;2023-08-21T00:59:48;30.50;47.20
50738;DHT22;36703;48.154;17.126;2023-08-21T01:03:50;30.40;47.30
50738;DHT22;36703;48.154;17.126;2023-08-21T01:08:02;30.30;47.50
50738;DHT22;36703;48.154;17.126;2023-08-21T01:16:27;30.20;47.60
50738;DHT22;36703;48.154;17.126;2023-08-21T01:20:29;30.20;47.90
50738;DHT22;36703;48.154;17.126;2023-08-21T01:24:31;30.20;48.10
50738;DHT22;36703;48.154;17.126;2023-08-21T01:28:35;30.30;48.20
50738;DHT22;36703;48.154;17.126;2023-08-21T01:32:53;30.20;48.30
50738;DHT22;36703;48.154;17.126;2023-08-21T01:36:57;30.30;48.50
50738;DHT22;36703;48.154;17.126;2023-08-21T01:40:59;30.30;48.40
50738;DHT22;36703;48.154;17.126;2023-08-21T01:45:01;30.20;48.50
50738;DHT22;36703;48.154;17.126;2023-08-21T01:49:03;30.20;48.60
50738;DHT22;36703;48.154;17.126;2023-08-21T01:53:05;30.20;48.80
50738;DHT22;36703;48.154;17.126;2023-08-21T01:57:06;30.20;48.60
50738;DHT22;36703;48.154;17.126;2023-08-21T02:01:08;30.10;48.70
50738;DHT22;36703;48.154;17.126;2023-08-21T02:05:09;30.00;48.60
50738;DHT22;36703;48.154;17.126;2023-08-21T02:09:11;29.90;48.50
50738;DHT22;36703;48.154;17.126;2023-08-21T02:13:12;29.90;48.60
50738;DHT22;36703;48.154;17.126;2023-08-21T02:17:14;29.90;48.80
50738;DHT22;36703;48.154;17.126;2023-08-21T02:21:15;29.80;48.90
50738;DHT22;36703;48.154;17.126;2023-08-21T02:29:19;29.70;49.00
50738;DHT22;36703;48.154;17.126;2023-08-21T02:41:29;29.50;49.90
50738;DHT22;36703;48.154;17.126;2023-08-21T02:45:31;29.20;50.40
50738;DHT22;36703;48.154;17.126;2023-08-21T02:49:32;29.20;50.00
50738;DHT22;36703;48.154;17.126;2023-08-21T02:53:34;29.30;50.10
50738;DHT22;36703;48.154;17.126;2023-08-21T02:57:36;29.40;50.30
50738;DHT22;36703;48.154;17.126;2023-08-21T03:01:37;29.40;50.10
50738;DHT22;36703;48.154;17.126;2023-08-21T03:05:39;29.40;50.20
50738;DHT22;36703;48.154;17.126;2023-08-21T03:09:40;29.40;50.20
50738;DHT22;36703;48.154;17.126;2023-08-21T03:13:42;29.40;50.10
50738;DHT22;36703;48.154;17.126;2023-08-21T03:17:44;29.30;50.10
50738;DHT22;36703;48.154;17.126;2023-08-21T03:21:45;29.10;50.20
50738;DHT22;36703;48.154;17.126;2023-08-21T03:25:47;29.00;50.50
50738;DHT22;36703;48.154;17.126;2023-08-21T03:29:49;28.80;50.30
50738;DHT22;36703;48.154;17.126;2023-08-21T03:33:50;28.70;50.50
50738;DHT22;36703;48.154;17.126;2023-08-21T03:37:54;28.60;50.50
50738;DHT22;36703;48.154;17.126;2023-08-21T03:41:56;28.60;50.90
50738;DHT22;36703;48.154;17.126;2023-08-21T03:45:59;28.60;50.70
50738;DHT22;36703;48.154;17.126;2023-08-21T03:50:00;28.60;51.00
50738;DHT22;36703;48.154;17.126;2023-08-21T03:54:02;28.40;51.00
50738;DHT22;36703;48.154;17.126;2023-08-21T03:58:04;28.60;51.00
50738;DHT22;36703;48.154;17.126;2023-08-21T04:02:06;28.60;51.00
50738;DHT22;36703;48.154;17.126;2023-08-21T04:06:08;28.60;51.10
50738;DHT22;36703;48.154;17.126;2023-08-21T04:10:09;28.60;51.20
50738;DHT22;36703;48.154;17.126;2023-08-21T04:14:11;28.70;51.30
50738;DHT22;36703;48.154;17.126;2023-08-21T04:18:12;28.80;51.20
50738;DHT22;36703;48.154;17.126;2023-08-21T04:22:14;28.80;51.20
50738;DHT22;36703;48.154;17.126;2023-08-21T04:26:16;28.80;51.10
50738;DHT22;36703;48.154;17.126;2023-08-21T04:30:17;28.90;51.10
50738;DHT22;36703;48.154;17.126;2023-08-21T04:34:20;28.90;51.00
50738;DHT22;36703;48.154;17.126;2023-08-21T04:38:21;28.90;51.10
50738;DHT22;36703;48.154;17.126;2023-08-21T04:42:23;28.90;51.10
50738;DHT22;36703;48.154;17.126;2023-08-21T04:46:25;28.90;51.20
50738;DHT22;36703;48.154;17.126;2023-08-21T04:50:26;28.90;51.40
50738;DHT22;36703;48.154;17.126;2023-08-21T04:54:28;29.00;51.30
50738;DHT22;36703;48.154;17.126;2023-08-21T04:58:30;29.00;51.00
50738;DHT22;36703;48.154;17.126;2023-08-21T05:02:33;29.10;51.10
50738;DHT22;36703;48.154;17.126;2023-08-21T05:06:37;29.10;51.20
50738;DHT22;36703;48.154;17.126;2023-08-21T05:10:39;29.20;51.40
50738;DHT22;36703;48.154;17.126;2023-08-21T05:14:41;29.20;51.40
50738;DHT22;36703;48.154;17.126;2023-08-21T05:18:42;29.20;51.20
50738;DHT22;36703;48.154;17.126;2023-08-21T05:22:44;29.20;50.90
50738;DHT22;36703;48.154;17.126;2023-08-21T05:26:47;29.10;50.80
50738;DHT22;36703;48.154;17.126;2023-08-21T05:30:48;29.20;51.00
50738;DHT22;36703;48.154;17.126;2023-08-21T05:34:50;29.20;50.70
50738;DHT22;36703;48.154;17.126;2023-08-21T05:38:52;29.30;50.80
50738;DHT22;36703;48.154;17.126;2023-08-21T05:42:54;29.20;50.40
50738;DHT22;36703;48.154;17.126;2023-08-21T05:46:56;29.10;50.50
50738;DHT22;36703;48.154;17.126;2023-08-21T05:50:58;29.00;50.70
50738;DHT22;36703;48.154;17.126;2023-08-21T05:55:00;29.00;50.90
50738;DHT22;36703;48.154;17.126;2023-08-21T05:59:01;29.00;51.00
50738;DHT22;36703;48.154;17.126;2023-08-21T06:03:03;29.00;51.20
50738;DHT22;36703;48.154;17.126;2023-08-21T06:07:32;29.00;51.20
50738;DHT22;36703;48.154;17.126;2023-08-21T06:11:34;29.10;50.70
50738;DHT22;36703;48.154;17.126;2023-08-21T06:15:36;29.10;50.30
50738;DHT22;36703;48.154;17.126;2023-08-21T06:19:37;29.20;50.10
50738;DHT22;36703;48.154;17.126;2023-08-21T06:23:39;29.30;50.20
50738;DHT22;36703;48.154;17.126;2023-08-21T06:27:43;29.40;50.00
50738;DHT22;36703;48.154;17.126;2023-08-21T06:31:44;29.60;49.70
50738;DHT22;36703;48.154;17.126;2023-08-21T06:35:46;29.70;49.50
50738;DHT22;36703;48.154;17.126;2023-08-21T06:39:48;29.80;49.80
50738;DHT22;36703;48.154;17.126;2023-08-21T06:43:49;29.80;49.30
50738;DHT22;36703;48.154;17.126;2023-08-21T06:47:53;29.90;49.30
50738;DHT22;36703;48.154;17.126;2023-08-21T06:51:54;30.00;49.10
50738;DHT22;36703;48.154;17.126;2023-08-21T06:55:56;30.10;48.60
50738;DHT22;36703;48.154;17.126;2023-08-21T06:59:57;30.20;48.40
50738;DHT22;36703;48.154;17.126;2023-08-21T07:03:59;30.20;48.10
50738;DHT22;36703;48.154;17.126;2023-08-21T07:08:01;30.40;47.90
50738;DHT22;36703;48.154;17.126;2023-08-21T07:12:02;30.40;47.60
50738;DHT22;36703;48.154;17.126;2023-08-21T07:16:05;30.50;47.30
50738;DHT22;36703;48.154;17.126;2023-08-21T07:20:07;30.50;47.00
50738;DHT22;36703;48.154;17.126;2023-08-21T07:24:09;30.50;47.00
50738;DHT22;36703;48.154;17.126;2023-08-21T07:28:11;30.60;47.10
50738;DHT22;36703;48.154;17.126;2023-08-21T07:32:12;30.60;47.10
50738;DHT22;36703;48.154;17.126;2023-08-21T07:36:14;30.70;47.20
50738;DHT22;36703;48.154;17.126;2023-08-21T07:40:18;30.80;47.30
50738;DHT22;36703;48.154;17.126;2023-08-21T07:44:19;30.90;47.20
50738;DHT22;36703;48.154;17.126;2023-08-21T07:48:21;31.00;47.40
50738;DHT22;36703;48.154;17.126;2023-08-21T07:52:23;31.10;47.20
50738;DHT22;36703;48.154;17.126;2023-08-21T07:56:24;31.20;46.70
50738;DHT22;36703;48.154;17.126;2023-08-21T08:00:26;31.30;46.40
50738;DHT22;36703;48.154;17.126;2023-08-21T08:04:28;31.40;45.90
50738;DHT22;36703;48.154;17.126;2023-08-21T08:08:29;31.40;45.70
50738;DHT22;36703;48.154;17.126;2023-08-21T08:12:32;31.50;45.70
50738;DHT22;36703;48.154;17.126;2023-08-21T08:16:34;31.60;45.40
50738;DHT22;36703;48.154;17.126;2023-08-21T08:20:36;31.60;45.20
50738;DHT22;36703;48.154;17.126;2023-08-21T08:24:37;31.70;45.60
50738;DHT22;36703;48.154;17.126;2023-08-21T08:28:39;31.80;45.40
50738;DHT22;36703;48.154;17.126;2023-08-21T08:32:42;31.80;45.50
50738;DHT22;36703;48.154;17.126;2023-08-21T08:36:46;31.90;45.30
50738;DHT22;36703;48.154;17.126;2023-08-21T08:40:47;32.00;45.20
50738;DHT22;36703;48.154;17.126;2023-08-21T08:44:54;32.10;45.00
50738;DHT22;36703;48.154;17.126;2023-08-21T08:48:57;32.20;45.00
50738;DHT22;36703;48.154;17.126;2023-08-21T08:53:00;32.30;44.80
50738;DHT22;36703;48.154;17.126;2023-08-21T08:57:02;32.40;44.90
50738;DHT22;36703;48.154;17.126;2023-08-21T09:01:04;32.40;44.70
50738;DHT22;36703;48.154;17.126;2023-08-21T09:05:05;32.60;44.60
50738;DHT22;36703;48.154;17.126;2023-08-21T09:09:08;32.60;44.30
50738;DHT22;36703;48.154;17.126;2023-08-21T09:13:18;32.80;44.00
50738;DHT22;36703;48.154;17.126;2023-08-21T09:17:20;32.90;43.60
50738;DHT22;36703;48.154;17.126;2023-08-21T09:21:23;33.00;43.40
50738;DHT22;36703;48.154;17.126;2023-08-21T09:25:28;33.10;43.20
50738;DHT22;36703;48.154;17.126;2023-08-21T09:29:39;33.20;43.20
50738;DHT22;36703;48.154;17.126;2023-08-21T09:33:44;33.30;43.20
50738;DHT22;36703;48.154;17.126;2023-08-21T09:37:56;33.40;43.30
50738;DHT22;36703;48.154;17.126;2023-08-21T09:41:57;33.60;43.40
50738;DHT22;36703;48.154;17.126;2023-08-21T09:45:59;33.70;43.30
50738;DHT22;36703;48.154;17.126;2023-08-21T09:50:00;33.90;43.20
50738;DHT22;36703;48.154;17.126;2023-08-21T09:54:02;34.20;43.20
50738;DHT22;36703;48.154;17.126;2023-08-21T09:58:05;34.40;42.80
50738;DHT22;36703;48.154;17.126;2023-08-21T10:02:09;34.70;42.50
50738;DHT22;36703;48.154;17.126;2023-08-21T10:06:11;34.90;42.30
50738;DHT22;36703;48.154;17.126;2023-08-21T10:10:14;35.10;41.90
50738;DHT22;36703;48.154;17.126;2023-08-21T10:14:18;35.30;41.70
50738;DHT22;36703;48.154;17.126;2023-08-21T10:18:24;35.60;41.50
50738;DHT22;36703;48.154;17.126;2023-08-21T10:32:01;35.90;40.60
50738;DHT22;36703;48.154;17.126;2023-08-21T10:36:04;36.10;40.50
50738;DHT22;36703;48.154;17.126;2023-08-21T10:46:14;36.20;40.90
50738;DHT22;36703;48.154;17.126;2023-08-21T10:50:17;36.30;41.90
50738;DHT22;36703;48.154;17.126;2023-08-21T10:54:18;36.20;42.40
50738;DHT22;36703;48.154;17.126;2023-08-21T10:58:20;36.20;42.40
50738;DHT22;36703;48.154;17.126;2023-08-21T11:02:27;36.20;42.20
50738;DHT22;36703;48.154;17.126;2023-08-21T11:06:30;36.30;41.90
50738;DHT22;36703;48.154;17.126;2023-08-21T11:32:36;36.70;36.50
50738;DHT22;36703;48.154;17.126;2023-08-21T11:36:42;36.80;35.80
50738;DHT22;36703;48.154;17.126;2023-08-21T11:41:05;36.80;35.40
50738;DHT22;36703;48.154;17.126;2023-08-21T11:45:07;36.90;35.40
50738;DHT22;36703;48.154;17.126;2023-08-21T11:49:11;37.00;35.10
50738;DHT22;36703;48.154;17.126;2023-08-21T11:53:13;37.10;34.90
50738;DHT22;36703;48.154;17.126;2023-08-21T11:57:15;37.10;34.70
50738;DHT22;36703;48.154;17.126;2023-08-21T12:01:17;37.20;34.60
50738;DHT22;36703;48.154;17.126;2023-08-21T12:05:20;37.10;34.10
50738;DHT22;36703;48.154;17.126;2023-08-21T12:09:21;37.10;33.80
50738;DHT22;36703;48.154;17.126;2023-08-21T12:13:23;37.00;33.70
50738;DHT22;36703;48.154;17.126;2023-08-21T12:17:25;37.00;34.10
50738;DHT22;36703;48.154;17.126;2023-08-21T12:21:26;37.00;34.60
50738;DHT22;36703;48.154;17.126;2023-08-21T12:25:28;37.10;35.00
50738;DHT22;36703;48.154;17.126;2023-08-21T12:29:29;37.00;35.10
50738;DHT22;36703;48.154;17.126;2023-08-21T12:33:31;37.00;34.90
50738;DHT22;36703;48.154;17.126;2023-08-21T12:37:32;37.10;34.20
50738;DHT22;36703;48.154;17.126;2023-08-21T12:41:34;37.10;34.00
50738;DHT22;36703;48.154;17.126;2023-08-21T12:45:36;37.10;34.30
50738;DHT22;36703;48.154;17.126;2023-08-21T12:49:38;37.10;34.20
50738;DHT22;36703;48.154;17.126;2023-08-21T12:53:40;37.00;34.10
50738;DHT22;36703;48.154;17.126;2023-08-21T12:57:41;37.00;34.10
50738;DHT22;36703;48.154;17.126;2023-08-21T13:01:43;37.00;33.90
50738;DHT22;36703;48.154;17.126;2023-08-21T13:05:44;37.00;33.60
50738;DHT22;36703;48.154;17.126;2023-08-21T13:09:46;37.00;33.60
50738;DHT22;36703;48.154;17.126;2023-08-21T13:13:47;36.90;33.20
50738;DHT22;36703;48.154;17.126;2023-08-21T13:17:49;36.90;32.70
50738;DHT22;36703;48.154;17.126;2023-08-21T13:21:51;36.90;32.20
50738;DHT22;36703;48.154;17.126;2023-08-21T13:25:52;36.90;32.30
50738;DHT22;36703;48.154;17.126;2023-08-21T13:29:54;36.80;32.40
50738;DHT22;36703;48.154;17.126;2023-08-21T13:33:55;36.80;32.30
50738;DHT22;36703;48.154;17.126;2023-08-21T13:37:57;36.80;32.40
50738;DHT22;36703;48.154;17.126;2023-08-21T13:41:58;36.70;32.80
50738;DHT22;36703;48.154;17.126;2023-08-21T13:46:01;36.70;33.10
50738;DHT22;36703;48.154;17.126;2023-08-21T13:50:05;36.50;32.80
50738;DHT22;36703;48.154;17.126;2023-08-21T13:54:08;36.60;32.70
50738;DHT22;36703;48.154;17.126;2023-08-21T13:58:09;36.60;32.70
50738;DHT22;36703;48.154;17.126;2023-08-21T14:02:11;36.60;33.00
50738;DHT22;36703;48.154;17.126;2023-08-21T14:06:12;36.50;32.80
50738;DHT22;36703;48.154;17.126;2023-08-21T14:10:14;36.50;32.20
50738;DHT22;36703;48.154;17.126;2023-08-21T14:14:15;36.50;31.60
50738;DHT22;36703;48.154;17.126;2023-08-21T14:18:17;36.50;30.60
50738;DHT22;36703;48.154;17.126;2023-08-21T14:22:18;36.40;30.80
50738;DHT22;36703;48.154;17.126;2023-08-21T14:26:20;36.40;30.90
50738;DHT22;36703;48.154;17.126;2023-08-21T14:30:22;36.40;30.90
50738;DHT22;36703;48.154;17.126;2023-08-21T14:34:23;36.40;31.10
50738;DHT22;36703;48.154;17.126;2023-08-21T14:38:25;36.30;31.10
50738;DHT22;36703;48.154;17.126;2023-08-21T14:42:26;36.20;31.20
50738;DHT22;36703;48.154;17.126;2023-08-21T14:46:28;36.20;31.40
50738;DHT22;36703;48.154;17.126;2023-08-21T14:50:29;36.10;31.80
50738;DHT22;36703;48.154;17.126;2023-08-21T14:54:36;36.00;32.80
50738;DHT22;36703;48.154;17.126;2023-08-21T14:58:37;36.00;32.00
50738;DHT22;36703;48.154;17.126;2023-08-21T15:02:39;36.00;31.80
50738;DHT22;36703;48.154;17.126;2023-08-21T15:06:42;36.00;32.00
50738;DHT22;36703;48.154;17.126;2023-08-21T15:10:44;36.00;32.00
50738;DHT22;36703;48.154;17.126;2023-08-21T15:14:45;35.90;32.10
50738;DHT22;36703;48.154;17.126;2023-08-21T15:18:47;35.80;32.70
50738;DHT22;36703;48.154;17.126;2023-08-21T15:22:53;35.70;32.90
50738;DHT22;36703;48.154;17.126;2023-08-21T15:26:54;35.70;33.80
50738;DHT22;36703;48.154;17.126;2023-08-21T15:30:56;35.60;34.10
50738;DHT22;36703;48.154;17.126;2023-08-21T15:34:58;35.50;33.80
50738;DHT22;36703;48.154;17.126;2023-08-21T15:39:01;35.50;33.70
50738;DHT22;36703;48.154;17.126;2023-08-21T15:43:06;35.50;33.90
50738;DHT22;36703;48.154;17.126;2023-08-21T15:47:08;35.40;33.60
50738;DHT22;36703;48.154;17.126;2023-08-21T15:51:10;35.40;33.30
50738;DHT22;36703;48.154;17.126;2023-08-21T15:55:11;35.40;34.00
50738;DHT22;36703;48.154;17.126;2023-08-21T15:59:13;35.40;33.60
50738;DHT22;36703;48.154;17.126;2023-08-21T16:03:14;35.40;33.20
50738;DHT22;36703;48.154;17.126;2023-08-21T16:07:16;35.40;32.90
50738;DHT22;36703;48.154;17.126;2023-08-21T16:11:17;35.30;32.80
50738;DHT22;36703;48.154;17.126;2023-08-21T16:15:19;35.30;32.60
50738;DHT22;36703;48.154;17.126;2023-08-21T16:19:20;35.30;32.50
50738;DHT22;36703;48.154;17.126;2023-08-21T16:23:22;35.30;32.70
50738;DHT22;36703;48.154;17.126;2023-08-21T16:27:23;35.30;32.90
50738;DHT22;36703;48.154;17.126;2023-08-21T16:31:25;35.30;32.50
50738;DHT22;36703;48.154;17.126;2023-08-21T16:35:27;35.20;34.50
50738;DHT22;36703;48.154;17.126;2023-08-21T16:39:29;35.20;33.60
50738;DHT22;36703;48.154;17.126;2023-08-21T16:43:30;35.10;34.10
50738;DHT22;36703;48.154;17.126;2023-08-21T16:47:32;35.00;34.50
50738;DHT22;36703;48.154;17.126;2023-08-21T16:51:33;35.00;34.20
50738;DHT22;36703;48.154;17.126;2023-08-21T16:55:35;35.00;34.30
50738;DHT22;36703;48.154;17.126;2023-08-21T16:59:37;35.00;35.50
50738;DHT22;36703;48.154;17.126;2023-08-21T17:03:38;34.90;37.20
50738;DHT22;36703;48.154;17.126;2023-08-21T17:07:40;34.90;37.40
50738;DHT22;36703;48.154;17.126;2023-08-21T17:16:21;34.80;37.30
50738;DHT22;36703;48.154;17.126;2023-08-21T17:20:23;34.70;37.40
50738;DHT22;36703;48.154;17.126;2023-08-21T17:24:26;34.70;37.40
50738;DHT22;36703;48.154;17.126;2023-08-21T17:28:28;34.60;37.30
50738;DHT22;36703;48.154;17.126;2023-08-21T17:32:29;34.60;36.80
50738;DHT22;36703;48.154;17.126;2023-08-21T17:36:31;34.60;36.70
50738;DHT22;36703;48.154;17.126;2023-08-21T17:40:32;34.60;36.90
50738;DHT22;36703;48.154;17.126;2023-08-21T17:44:34;34.60;36.70
50738;DHT22;36703;48.154;17.126;2023-08-21T17:48:36;34.60;36.30
50738;DHT22;36703;48.154;17.126;2023-08-21T17:52:37;34.60;36.10
50738;DHT22;36703;48.154;17.126;2023-08-21T17:56:39;34.50;36.00
50738;DHT22;36703;48.154;17.126;2023-08-21T18:00:41;34.50;36.00
50738;DHT22;36703;48.154;17.126;2023-08-21T18:04:42;34.50;36.20
50738;DHT22;36703;48.154;17.126;2023-08-21T18:08:44;34.40;36.10
50738;DHT22;36703;48.154;17.126;2023-08-21T18:12:45;34.40;35.90
50738;DHT22;36703;48.154;17.126;2023-08-21T18:16:48;34.30;35.60
50738;DHT22;36703;48.154;17.126;2023-08-21T18:20:54;34.30;35.50
50738;DHT22;36703;48.154;17.126;2023-08-21T18:24:55;34.30;35.30
50738;DHT22;36703;48.154;17.126;2023-08-21T18:28:57;34.20;35.50
50738;DHT22;36703;48.154;17.126;2023-08-21T18:32:59;34.20;35.90
50738;DHT22;36703;48.154;17.126;2023-08-21T18:37:01;34.20;36.30
50738;DHT22;36703;48.154;17.126;2023-08-21T18:41:02;34.20;36.50
50738;DHT22;36703;48.154;17.126;2023-08-21T18:45:04;34.10;37.20
50738;DHT22;36703;48.154;17.126;2023-08-21T18:49:06;34.00;38.20
50738;DHT22;36703;48.154;17.126;2023-08-21T18:53:09;33.90;38.80
50738;DHT22;36703;48.154;17.126;2023-08-21T18:57:11;33.90;39.60
50738;DHT22;36703;48.154;17.126;2023-08-21T19:01:13;33.80;40.10
50738;DHT22;36703;48.154;17.126;2023-08-21T19:05:14;33.70;39.80
50738;DHT22;36703;48.154;17.126;2023-08-21T19:09:16;33.70;39.60
50738;DHT22;36703;48.154;17.126;2023-08-21T19:13:19;33.70;39.70
50738;DHT22;36703;48.154;17.126;2023-08-21T19:17:20;33.60;39.80
50738;DHT22;36703;48.154;17.126;2023-08-21T19:21:22;33.60;40.10
50738;DHT22;36703;48.154;17.126;2023-08-21T19:25:23;33.50;40.20
50738;DHT22;36703;48.154;17.126;2023-08-21T19:29:25;33.50;40.40
50738;DHT22;36703;48.154;17.126;2023-08-21T19:33:26;33.40;40.50
50738;DHT22;36703;48.154;17.126;2023-08-21T19:37:28;33.40;40.70
50738;DHT22;36703;48.154;17.126;2023-08-21T19:41:29;33.30;41.30
50738;DHT22;36703;48.154;17.126;2023-08-21T19:45:34;33.30;40.60
50738;DHT22;36703;48.154;17.126;2023-08-21T19:49:35;33.20;41.40
50738;DHT22;36703;48.154;17.126;2023-08-21T19:53:39;33.20;41.70
50738;DHT22;36703;48.154;17.126;2023-08-21T19:57:41;33.10;41.10
50738;DHT22;36703;48.154;17.126;2023-08-21T20:01:42;33.10;42.10
50738;DHT22;36703;48.154;17.126;2023-08-21T20:05:44;33.00;42.20
50738;DHT22;36703;48.154;17.126;2023-08-21T20:09:46;32.90;42.40
50738;DHT22;36703;48.154;17.126;2023-08-21T20:13:48;32.90;41.80
50738;DHT22;36703;48.154;17.126;2023-08-21T20:17:50;32.90;42.70
50738;DHT22;36703;48.154;17.126;2023-08-21T20:21:51;32.80;42.80
50738;DHT22;36703;48.154;17.126;2023-08-21T20:25:53;32.80;43.70
50738;DHT22;36703;48.154;17.126;2023-08-21T20:29:54;32.70;43.10
50738;DHT22;36703;48.154;17.126;2023-08-21T20:33:56;32.50;42.20
50738;DHT22;36703;48.154;17.126;2023-08-21T20:37:58;32.70;44.10
50738;DHT22;36703;48.154;17.126;2023-08-21T20:41:59;32.60;43.20
50738;DHT22;36703;48.154;17.126;2023-08-21T20:46:04;32.60;43.00
50738;DHT22;36703;48.154;17.126;2023-08-21T20:50:07;32.60;43.10
50738;DHT22;36703;48.154;17.126;2023-08-21T20:54:09;32.50;43.10
50738;DHT22;36703;48.154;17.126;2023-08-21T20:58:10;32.50;43.30
50738;DHT22;36703;48.154;17.126;2023-08-21T21:02:13;32.50;43.40
50738;DHT22;36703;48.154;17.126;2023-08-21T21:06:14;32.50;43.80
50738;DHT22;36703;48.154;17.126;2023-08-21T21:10:16;32.50;44.10
50738;DHT22;36703;48.154;17.126;2023-08-21T21:14:18;32.50;44.30
50738;DHT22;36703;48.154;17.126;2023-08-21T21:18:19;32.50;44.40
50738;DHT22;36703;48.154;17.126;2023-08-21T21:22:21;32.50;44.60
50738;DHT22;36703;48.154;17.126;2023-08-21T21:26:22;32.50;44.70
50738;DHT22;36703;48.154;17.126;2023-08-21T21:30:24;32.50;44.90
50738;DHT22;36703;48.154;17.126;2023-08-21T21:34:26;32.40;44.90
50738;DHT22;36703;48.154;17.126;2023-08-21T21:38:28;32.40;44.90
50738;DHT22;36703;48.154;17.126;2023-08-21T21:42:30;32.40;44.90
50738;DHT22;36703;48.154;17.126;2023-08-21T21:46:32;32.40;45.10
50738;DHT22;36703;48.154;17.126;2023-08-21T21:50:33;32.40;45.30
50738;DHT22;36703;48.154;17.126;2023-08-21T21:54:35;32.40;45.30
50738;DHT22;36703;48.154;17.126;2023-08-21T21:58:37;32.40;45.20
50738;DHT22;36703;48.154;17.126;2023-08-21T22:02:39;32.40;45.20
50738;DHT22;36703;48.154;17.126;2023-08-21T22:06:41;32.30;45.00
50738;DHT22;36703;48.154;17.126;2023-08-21T22:10:43;32.30;45.00
50738;DHT22;36703;48.154;17.126;2023-08-21T22:14:45;32.30;45.20
50738;DHT22;36703;48.154;17.126;2023-08-21T22:18:46;32.30;45.20
50738;DHT22;36703;48.154;17.126;2023-08-21T22:22:48;32.30;45.30
50738;DHT22;36703;48.154;17.126;2023-08-21T22:26:50;32.30;45.40
50738;DHT22;36703;48.154;17.126;2023-08-21T22:30:51;32.20;45.50
50738;DHT22;36703;48.154;17.126;2023-08-21T22:34:53;32.20;46.20
50738;DHT22;36703;48.154;17.126;2023-08-21T22:38:54;32.20;45.50
50738;DHT22;36703;48.154;17.126;2023-08-21T22:42:56;32.10;45.40
50738;DHT22;36703;48.154;17.126;2023-08-21T22:46:58;32.10;45.60
50738;DHT22;36703;48.154;17.126;2023-08-21T22:51:03;32.10;45.70
50738;DHT22;36703;48.154;17.126;2023-08-21T22:55:07;32.10;45.70
50738;DHT22;36703;48.154;17.126;2023-08-21T22:59:09;32.10;46.00
50738;DHT22;36703;48.154;17.126;2023-08-21T23:03:11;32.10;46.10
50738;DHT22;36703;48.154;17.126;2023-08-21T23:07:13;32.10;46.00
50738;DHT22;36703;48.154;17.126;2023-08-21T23:11:17;32.10;46.00
50738;DHT22;36703;48.154;17.126;2023-08-21T23:15:19;32.00;46.10
50738;DHT22;36703;48.154;17.126;2023-08-21T23:19:20;32.00;45.90
50738;DHT22;36703;48.154;17.126;2023-08-21T23:23:22;32.00;45.90
50738;DHT22;36703;48.154;17.126;2023-08-21T23:27:24;31.90;46.10
50738;DHT22;36703;48.154;17.126;2023-08-21T23:31:25;31.90;46.00
50738;DHT22;36703;48.154;17.126;2023-08-21T23:35:27;31.90;46.00
50738;DHT22;36703;48.154;17.126;2023-08-21T23:39:28;31.90;45.90
50738;DHT22;36703;48.154;17.126;2023-08-21T23:43:30;31.90;45.80
50738;DHT22;36703;48.154;17.126;2023-08-21T23:47:31;31.90;45.60
50738;DHT22;36703;48.154;17.126;2023-08-21T23:51:33;31.90;45.60
50738;DHT22;36703;48.154;17.126;2023-08-21T23:55:36;31.80;45.40
50738;DHT22;36703;48.154;17.126;2023-08-21T23:59:38;31.80;45.70
